Time;durP1;ratioP1;P1;durP2;ratioP2;P2;SDS_P1;SDS_P2;PMS_P1;PMS_P2;Temp;Humidity;BMP_temperature;BMP_pressure;BME280_temperature;BME280_humidity;BME280_pressure;Samples;Min_cycle;Max_cycle;Signal;HPM_P1;HPM_P2
2022/12/20 00:01:56;;;;;;;41.83;22.63;;;-2.10;99.90;;;;;;5047491;28;20300;-84
2022/12/20 00:04:23;;;;;;;33.95;18.00;;;-2.10;99.90;;;;;;5060134;28;20702;-84
2022/12/20 00:06:50;;;;;;;41.38;23.30;;;-2.20;99.90;;;;;;5054166;28;20816;-84
2022/12/20 00:09:19;;;;;;;45.40;21.30;;;-2.30;99.90;;;;;;5063222;28;20212;-84
2022/12/20 00:11:45;;;;;;;44.42;22.50;;;-2.30;99.90;;;;;;5060760;28;20695;-84
2022/12/20 00:14:12;;;;;;;40.28;22.45;;;-2.30;99.90;;;;;;5061053;28;20294;-84
2022/12/20 00:16:39;;;;;;;35.60;19.85;;;-2.20;99.90;;;;;;5051504;28;20730;-84
2022/12/20 00:19:07;;;;;;;35.67;20.90;;;-2.20;99.90;;;;;;5056620;28;20273;-84
2022/12/20 00:21:35;;;;;;;33.25;20.00;;;-2.20;99.90;;;;;;5063900;28;20294;-84
2022/12/20 00:24:03;;;;;;;38.53;21.83;;;-2.00;99.90;;;;;;5061160;28;20234;-84
2022/12/20 00:26:33;;;;;;;46.92;23.02;;;-2.10;99.90;;;;;;5060375;28;20447;-84
2022/12/20 00:29:01;;;;;;;43.22;22.25;;;-2.00;99.90;;;;;;5060112;28;20266;-84
2022/12/20 00:31:30;;;;;;;43.55;21.42;;;-2.10;99.90;;;;;;5062790;28;20264;-84
2022/12/20 00:33:58;;;;;;;41.08;21.08;;;-2.30;99.90;;;;;;5060845;28;20223;-84
2022/12/20 00:36:27;;;;;;;39.22;21.85;;;-2.40;99.90;;;;;;5060440;28;20767;-84
2022/12/20 00:38:55;;;;;;;42.90;22.73;;;-2.30;99.90;;;;;;5047667;28;20392;-84
2022/12/20 00:41:25;;;;;;;41.80;22.00;;;-2.30;99.90;;;;;;5062260;28;20792;-84
2022/12/20 00:43:53;;;;;;;45.83;21.40;;;-2.30;99.90;;;;;;5063724;28;20600;-84
2022/12/20 00:46:22;;;;;;;42.65;21.88;;;-2.30;99.90;;;;;;5063837;28;20261;-84
2022/12/20 00:48:49;;;;;;;47.25;22.58;;;-2.20;99.90;;;;;;5059409;28;20219;-85
2022/12/20 00:51:18;;;;;;;50.17;22.00;;;-2.20;99.90;;;;;;5056890;28;20939;-85
2022/12/20 00:53:46;;;;;;;50.80;21.60;;;-2.20;99.90;;;;;;5059255;28;20254;-84
2022/12/20 00:56:13;;;;;;;39.95;23.50;;;-2.30;99.90;;;;;;5060542;28;20202;-84
2022/12/20 00:58:42;;;;;;;37.47;20.60;;;-2.40;99.90;;;;;;5062714;28;20288;-84
2022/12/20 01:01:19;;;;;;;46.25;24.17;;;-2.40;99.90;;;;;;5062759;28;20279;-83
2022/12/20 01:03:47;;;;;;;41.63;22.73;;;-2.40;99.90;;;;;;5063291;28;20566;-82
2022/12/20 01:06:14;;;;;;;33.63;18.73;;;-2.40;99.90;;;;;;5057838;28;20216;-82
2022/12/20 01:08:41;;;;;;;40.88;22.02;;;-2.40;99.90;;;;;;5059855;28;20235;-83
2022/12/20 01:11:09;;;;;;;38.97;19.23;;;-2.30;99.90;;;;;;5060037;28;20202;-82
2022/12/20 01:13:40;;;;;;;38.42;19.98;;;-2.30;99.90;;;;;;5048392;28;20313;-82
2022/12/20 01:16:09;;;;;;;43.42;21.83;;;-2.30;99.90;;;;;;5057583;28;20654;-82
2022/12/20 01:18:38;;;;;;;41.20;18.55;;;-2.30;99.90;;;;;;5062157;28;20202;-83
2022/12/20 01:21:07;;;;;;;43.85;19.95;;;-2.30;99.90;;;;;;5061485;28;20201;-82
2022/12/20 01:23:35;;;;;;;41.97;19.35;;;-2.30;99.90;;;;;;5061677;28;20332;-83
2022/12/20 01:26:03;;;;;;;36.85;18.40;;;-2.30;99.90;;;;;;5057450;28;20317;-82
2022/12/20 01:28:31;;;;;;;45.40;20.77;;;-2.40;99.90;;;;;;5063369;28;20255;-82
2022/12/20 01:30:58;;;;;;;40.53;18.58;;;-2.40;99.90;;;;;;5058042;28;20456;-82
2022/12/20 01:33:26;;;;;;;36.28;18.10;;;-2.40;99.90;;;;;;5064825;28;20228;-84
2022/12/20 01:35:58;;;;;;;42.47;20.00;;;-2.40;99.90;;;;;;5060672;28;20202;-84
2022/12/20 01:38:26;;;;;;;43.35;21.98;;;-2.40;99.90;;;;;;5057199;28;20237;-84
2022/12/20 01:40:53;;;;;;;39.10;21.08;;;-2.50;99.90;;;;;;5053051;28;20231;-85
2022/12/20 01:43:21;;;;;;;44.95;22.35;;;-2.50;99.90;;;;;;5059557;28;20205;-84
2022/12/20 01:45:49;;;;;;;41.55;21.23;;;-2.50;99.90;;;;;;5063770;28;20663;-84
2022/12/20 01:48:21;;;;;;;36.35;19.73;;;-2.50;99.90;;;;;;5062031;28;20271;-84
2022/12/20 01:50:50;;;;;;;40.47;20.70;;;-2.60;99.90;;;;;;5062363;28;20205;-84
2022/12/20 01:53:21;;;;;;;34.70;18.17;;;-2.50;99.90;;;;;;5057868;28;20311;-84
2022/12/20 01:55:48;;;;;;;36.70;19.52;;;-2.60;99.90;;;;;;5063754;28;20220;-84
2022/12/20 01:58:17;;;;;;;32.72;16.65;;;-2.60;99.90;;;;;;5061009;28;20288;-84
2022/12/20 02:00:44;;;;;;;41.53;17.20;;;-2.70;99.90;;;;;;5062489;28;20241;-84
2022/12/20 02:03:14;;;;;;;38.17;19.30;;;-2.70;99.90;;;;;;5061215;28;20196;-84
2022/12/20 02:05:44;;;;;;;40.80;19.30;;;-2.70;99.90;;;;;;5064933;28;20295;-84
2022/12/20 02:08:13;;;;;;;39.88;20.58;;;-2.70;99.90;;;;;;5060377;28;20290;-84
2022/12/20 02:10:58;;;;;;;41.13;20.55;;;-2.60;99.90;;;;;;5060881;28;20215;-84
2022/12/20 02:13:34;;;;;;;46.60;17.95;;;-2.60;99.90;;;;;;5061696;28;20253;-84
2022/12/20 02:16:01;;;;;;;39.67;20.65;;;-2.60;99.90;;;;;;5059722;28;20203;-84
2022/12/20 02:18:36;;;;;;;39.65;19.83;;;-2.60;99.90;;;;;;5059336;28;20238;-84
2022/12/20 02:21:20;;;;;;;39.17;19.65;;;-2.60;99.90;;;;;;5057613;28;20211;-84
2022/12/20 02:24:17;;;;;;;44.90;22.05;;;-2.50;99.90;;;;;;5063356;28;20229;-84
2022/12/20 02:27:19;;;;;;;42.67;21.60;;;-2.60;99.90;;;;;;5059440;28;20244;-84
2022/12/20 02:30:14;;;;;;;43.67;18.80;;;-2.60;99.90;;;;;;5059306;28;20696;-84
2022/12/20 02:32:48;;;;;;;31.45;19.98;;;-2.60;99.90;;;;;;5062925;28;20215;-84
2022/12/20 02:35:19;;;;;;;37.97;18.65;;;-2.60;99.90;;;;;;5058853;28;20230;-85
2022/12/20 02:37:51;;;;;;;46.35;20.17;;;-2.60;99.90;;;;;;5062890;28;20604;-84
2022/12/20 02:40:21;;;;;;;36.90;20.58;;;-2.60;99.90;;;;;;5058893;28;20209;-84
2022/12/20 02:42:51;;;;;;;33.38;14.70;;;-2.60;99.90;;;;;;5064132;28;20294;-84
2022/12/20 02:45:22;;;;;;;37.30;20.35;;;-2.50;99.90;;;;;;5065178;28;20299;-84
2022/12/20 02:47:53;;;;;;;44.28;21.33;;;-2.50;99.90;;;;;;5061110;28;20732;-84
2022/12/20 02:50:26;;;;;;;38.67;20.50;;;-2.50;99.90;;;;;;5058647;28;20233;-84
2022/12/20 02:52:54;;;;;;;46.17;18.63;;;-2.50;99.90;;;;;;5062346;28;22112;-84
2022/12/20 02:55:29;;;;;;;43.08;20.48;;;-2.40;99.90;;;;;;5064674;28;20561;-84
2022/12/20 02:58:02;;;;;;;38.92;18.25;;;-2.40;99.90;;;;;;5057605;28;20211;-84
2022/12/20 03:00:34;;;;;;;49.03;16.90;;;-2.40;99.90;;;;;;5061343;28;20202;-84
2022/12/20 03:05:47;;;;;;;36.67;19.40;;;-2.40;99.90;;;;;;5067574;28;20213;-84
2022/12/20 03:08:15;;;;;;;44.88;18.77;;;-2.40;99.90;;;;;;5059261;28;20283;-84
2022/12/20 03:10:42;;;;;;;28.80;17.42;;;-2.40;99.90;;;;;;5064862;28;20858;-84
2022/12/20 03:13:09;;;;;;;34.67;18.58;;;-2.40;99.90;;;;;;5064391;28;20261;-84
2022/12/20 03:15:37;;;;;;;35.88;17.23;;;-2.40;99.90;;;;;;5062534;28;20256;-84
2022/12/20 03:18:04;;;;;;;37.42;21.08;;;-2.40;99.90;;;;;;5060305;28;20233;-84
2022/12/20 03:20:31;;;;;;;34.72;18.42;;;-2.40;99.90;;;;;;5063850;28;20203;-84
2022/12/20 03:22:58;;;;;;;43.45;19.95;;;-2.40;99.90;;;;;;5062899;28;20257;-84
2022/12/20 03:25:25;;;;;;;40.60;19.05;;;-2.40;99.90;;;;;;5062731;28;20282;-84
2022/12/20 03:27:52;;;;;;;40.67;16.17;;;-2.40;99.90;;;;;;5061949;28;20234;-84
2022/12/20 03:30:19;;;;;;;41.95;18.00;;;-2.40;99.90;;;;;;5064460;28;20285;-84
2022/12/20 03:32:47;;;;;;;38.78;17.90;;;-2.40;99.90;;;;;;5063856;28;20233;-84
2022/12/20 03:35:15;;;;;;;28.98;14.75;;;-2.40;99.90;;;;;;5061251;28;20236;-84
2022/12/20 03:37:42;;;;;;;47.30;19.13;;;-2.40;99.90;;;;;;5063218;28;20368;-84
2022/12/20 03:40:10;;;;;;;36.47;19.20;;;-2.40;99.90;;;;;;5053954;28;20662;-84
2022/12/20 03:42:37;;;;;;;39.03;20.40;;;-2.40;99.90;;;;;;5066815;28;20251;-85
2022/12/20 03:45:05;;;;;;;38.17;19.38;;;-2.40;99.90;;;;;;5065335;28;20199;-84
2022/12/20 03:47:32;;;;;;;41.72;18.70;;;-2.30;99.90;;;;;;5064647;28;20199;-85
2022/12/20 03:50:00;;;;;;;35.83;16.48;;;-2.30;99.90;;;;;;5061449;28;20315;-84
2022/12/20 03:52:27;;;;;;;32.28;17.75;;;-2.40;99.90;;;;;;5063816;28;20651;-82
2022/12/20 03:54:54;;;;;;;38.17;18.50;;;-2.30;99.90;;;;;;5064694;28;20274;-82
2022/12/20 03:57:21;;;;;;;35.45;17.20;;;-2.30;99.90;;;;;;5062203;28;20267;-82
2022/12/20 03:59:48;;;;;;;44.40;20.70;;;-2.30;99.90;;;;;;5058840;28;20288;-82
2022/12/20 04:02:15;;;;;;;35.20;17.35;;;-2.30;99.90;;;;;;5058679;28;20299;-84
2022/12/20 04:04:42;;;;;;;32.95;18.27;;;-2.30;99.90;;;;;;5062036;28;20200;-84
2022/12/20 04:07:11;;;;;;;34.33;18.50;;;-2.40;99.90;;;;;;5062215;28;20238;-84
2022/12/20 04:09:38;;;;;;;34.35;16.92;;;-2.30;99.90;;;;;;5061415;28;20205;-84
2022/12/20 04:12:05;;;;;;;37.47;17.60;;;-2.30;99.90;;;;;;5054220;28;20543;-83
2022/12/20 04:14:32;;;;;;;44.65;21.10;;;-2.30;99.90;;;;;;5061422;28;20312;-83
2022/12/20 04:16:59;;;;;;;40.13;17.00;;;-2.30;99.90;;;;;;5059943;28;20242;-83
2022/12/20 04:19:26;;;;;;;47.30;22.58;;;-2.30;99.90;;;;;;5065205;28;20209;-83
2022/12/20 04:21:57;;;;;;;30.08;16.40;;;-2.30;99.90;;;;;;5064482;28;20229;-83
2022/12/20 04:24:25;;;;;;;44.88;20.30;;;-2.20;99.90;;;;;;5060668;28;20202;-83
2022/12/20 04:26:52;;;;;;;42.72;18.60;;;-2.30;99.90;;;;;;5056150;28;20205;-83
2022/12/20 04:29:19;;;;;;;46.30;17.70;;;-2.30;99.90;;;;;;5060550;28;20322;-83
2022/12/20 04:31:46;;;;;;;47.13;19.75;;;-2.20;99.90;;;;;;5063109;28;20283;-83
2022/12/20 04:34:13;;;;;;;47.53;16.52;;;-2.30;99.90;;;;;;5059633;28;20259;-83
2022/12/20 04:36:40;;;;;;;42.08;19.85;;;-2.20;99.90;;;;;;5062054;28;20705;-83
2022/12/20 04:39:07;;;;;;;42.47;20.08;;;-2.20;99.90;;;;;;5056969;28;20306;-83
2022/12/20 04:41:35;;;;;;;39.63;20.45;;;-2.20;99.90;;;;;;5064409;28;20240;-83
2022/12/20 04:44:02;;;;;;;35.33;19.00;;;-2.30;99.90;;;;;;5060099;28;20196;-83
2022/12/20 04:46:29;;;;;;;40.15;18.85;;;-2.20;99.90;;;;;;5062415;28;20304;-84
2022/12/20 04:48:57;;;;;;;38.08;17.80;;;-2.20;99.90;;;;;;5063710;28;20272;-83
2022/12/20 04:51:24;;;;;;;43.20;18.60;;;-2.20;99.90;;;;;;5060877;28;20203;-84
2022/12/20 04:53:49;;;;;;;36.60;18.83;;;-2.20;99.90;;;;;;5061514;28;20345;-84
2022/12/20 04:56:18;;;;;;;42.83;17.10;;;-2.20;99.90;;;;;;5054963;28;20781;-84
2022/12/20 04:58:48;;;;;;;47.05;19.58;;;-2.20;99.90;;;;;;5057440;28;20952;-84
2022/12/20 05:01:15;;;;;;;37.27;19.27;;;-2.20;99.90;;;;;;5059736;28;20206;-84
2022/12/20 05:03:42;;;;;;;38.55;18.95;;;-2.30;99.90;;;;;;5060179;28;20484;-84
2022/12/20 05:06:10;;;;;;;38.78;18.95;;;-2.20;99.90;;;;;;5055219;28;20230;-84
2022/12/20 05:08:37;;;;;;;42.13;17.65;;;-2.30;99.90;;;;;;5061081;28;20210;-84
2022/12/20 05:11:04;;;;;;;42.20;18.42;;;-2.30;99.90;;;;;;5057465;28;20226;-84
2022/12/20 05:13:32;;;;;;;36.53;18.50;;;-2.20;99.90;;;;;;5056938;28;20301;-84
2022/12/20 05:16:00;;;;;;;46.35;18.83;;;-2.20;99.90;;;;;;5060412;28;20233;-84
2022/12/20 05:18:28;;;;;;;46.20;21.95;;;-2.20;99.90;;;;;;5059445;28;20223;-84
2022/12/20 05:26:23;;;;;;;45.25;21.95;;;-2.20;99.90;;;;;;5057835;28;20202;-82
2022/12/20 05:28:51;;;;;;;41.22;18.40;;;-2.20;99.90;;;;;;5056657;28;20319;-82
2022/12/20 05:31:19;;;;;;;41.80;16.92;;;-2.20;99.90;;;;;;5054028;28;20205;-82
2022/12/20 05:33:46;;;;;;;36.70;20.17;;;-2.20;99.90;;;;;;5060834;28;20228;-82
2022/12/20 05:36:13;;;;;;;48.80;21.60;;;-2.20;99.90;;;;;;5045834;28;20268;-82
2022/12/20 05:38:40;;;;;;;43.72;20.30;;;-2.20;99.90;;;;;;5047822;28;20692;-82
2022/12/20 05:41:07;;;;;;;42.38;20.65;;;-2.20;99.90;;;;;;5051698;28;20611;-82
2022/12/20 05:43:34;;;;;;;43.13;21.40;;;-2.30;99.90;;;;;;5045572;28;20265;-84
2022/12/20 05:46:01;;;;;;;39.22;20.00;;;-2.30;99.90;;;;;;5049859;28;20204;-84
2022/12/20 05:48:30;;;;;;;50.97;20.48;;;-2.30;99.90;;;;;;5055510;28;20624;-84
2022/12/20 05:50:57;;;;;;;49.40;19.10;;;-2.30;99.90;;;;;;5054907;28;20611;-84
2022/12/20 05:53:25;;;;;;;58.25;27.58;;;-2.30;99.90;;;;;;5052568;28;20655;-84
2022/12/20 05:55:53;;;;;;;59.35;28.35;;;-2.30;99.90;;;;;;5061538;28;20617;-85
2022/12/20 05:58:20;;;;;;;55.72;26.08;;;-2.30;99.90;;;;;;5056733;28;20234;-84
2022/12/20 06:00:47;;;;;;;55.97;30.67;;;-2.30;99.90;;;;;;5062609;28;20233;-84
2022/12/20 06:03:15;;;;;;;44.88;21.95;;;-2.20;99.90;;;;;;5049364;28;20218;-84
2022/12/20 06:05:44;;;;;;;45.00;23.38;;;-2.20;99.90;;;;;;5053280;28;20218;-84
2022/12/20 06:08:12;;;;;;;38.88;19.10;;;-2.30;99.90;;;;;;5046020;28;20265;-84
2022/12/20 06:10:40;;;;;;;41.33;20.92;;;-2.40;99.90;;;;;;5055157;28;20647;-83
2022/12/20 06:13:08;;;;;;;41.38;22.73;;;-2.40;99.90;;;;;;5053053;28;20210;-83
2022/12/20 06:15:35;;;;;;;90.32;49.75;;;-2.30;99.90;;;;;;5051939;28;20264;-83
2022/12/20 06:18:03;;;;;;;61.15;30.80;;;-2.30;99.90;;;;;;5052984;28;20241;-83
2022/12/20 06:20:30;;;;;;;81.40;44.03;;;-2.30;99.90;;;;;;5049411;28;21645;-83
2022/12/20 06:22:59;;;;;;;48.92;23.27;;;-2.30;99.90;;;;;;5063436;28;20202;-83
2022/12/20 06:25:26;;;;;;;53.38;24.17;;;-2.30;99.90;;;;;;5062990;28;20211;-84
2022/12/20 06:27:53;;;;;;;48.80;23.08;;;-2.30;99.90;;;;;;5050097;28;20289;-84
2022/12/20 06:30:20;;;;;;;45.67;21.67;;;-2.30;99.90;;;;;;5049402;28;20756;-84
2022/12/20 06:32:47;;;;;;;39.35;18.05;;;-2.30;99.90;;;;;;5055438;28;21645;-83
2022/12/20 06:35:14;;;;;;;51.38;22.60;;;-2.30;99.90;;;;;;5062234;28;20265;-84
2022/12/20 06:37:41;;;;;;;39.60;19.40;;;-2.30;99.90;;;;;;5050031;28;20240;-85
2022/12/20 06:40:12;;;;;;;38.58;16.15;;;-2.30;99.90;;;;;;5060276;28;20267;-83
2022/12/20 06:42:39;;;;;;;38.42;18.75;;;-2.30;99.90;;;;;;5059552;28;20246;-85
2022/12/20 06:45:07;;;;;;;42.63;21.42;;;-2.30;99.90;;;;;;5055496;28;20231;-83
2022/12/20 06:47:35;;;;;;;48.20;22.83;;;-2.30;99.90;;;;;;5051607;28;20242;-83
2022/12/20 06:50:02;;;;;;;43.65;18.95;;;-2.30;99.90;;;;;;5055154;28;20230;-84
2022/12/20 06:52:29;;;;;;;50.97;23.92;;;-2.30;99.90;;;;;;5056068;28;20284;-84
2022/12/20 06:54:56;;;;;;;44.10;19.80;;;-2.30;99.90;;;;;;5059777;28;20888;-84
2022/12/20 06:57:24;;;;;;;53.47;23.58;;;-2.30;99.90;;;;;;5058616;28;20234;-84
2022/12/20 06:59:51;;;;;;;42.22;19.02;;;-2.40;99.90;;;;;;5055557;28;20242;-84
2022/12/20 07:02:18;;;;;;;47.30;21.35;;;-2.30;99.90;;;;;;5047614;28;20255;-84
2022/12/20 07:04:45;;;;;;;40.50;18.52;;;-2.20;99.90;;;;;;5053893;28;20596;-84
2022/12/20 07:07:13;;;;;;;41.50;21.23;;;-2.30;99.90;;;;;;5062342;28;20235;-84
2022/12/20 07:09:41;;;;;;;47.40;23.77;;;-2.20;99.90;;;;;;5053108;28;20301;-85
2022/12/20 07:12:08;;;;;;;39.50;20.08;;;-2.20;99.90;;;;;;5054530;28;20196;-84
2022/12/20 07:14:36;;;;;;;36.45;21.38;;;-2.20;99.90;;;;;;5055826;28;20319;-84
2022/12/20 07:17:03;;;;;;;48.78;20.67;;;-2.20;99.90;;;;;;5057263;28;20284;-84
2022/12/20 07:19:30;;;;;;;32.03;17.30;;;-2.20;99.90;;;;;;5061317;28;20243;-84
2022/12/20 07:21:57;;;;;;;50.25;21.00;;;-2.20;99.90;;;;;;5060035;28;20205;-84
2022/12/20 07:24:24;;;;;;;36.40;19.15;;;-2.20;99.90;;;;;;5051045;28;20269;-84
2022/12/20 07:26:51;;;;;;;46.60;19.70;;;-2.10;99.90;;;;;;5048135;28;20731;-84
2022/12/20 07:29:18;;;;;;;51.00;21.98;;;-2.10;99.90;;;;;;5048012;28;20245;-84
2022/12/20 07:31:46;;;;;;;37.42;19.75;;;-2.10;99.90;;;;;;5055088;28;20243;-84
2022/12/20 07:34:13;;;;;;;55.97;20.98;;;-2.00;99.90;;;;;;5055623;28;20276;-84
2022/12/20 07:36:41;;;;;;;45.13;21.77;;;-2.10;99.90;;;;;;5050376;28;20312;-84
2022/12/20 07:39:08;;;;;;;41.78;19.38;;;-1.90;99.90;;;;;;5050485;28;20233;-84
2022/12/20 07:41:35;;;;;;;40.00;18.90;;;-1.90;99.90;;;;;;5058061;28;20232;-84
2022/12/20 07:44:02;;;;;;;48.38;19.80;;;-2.00;99.90;;;;;;5051800;28;20266;-84
2022/12/20 07:46:29;;;;;;;41.75;21.65;;;-2.00;99.90;;;;;;5050627;28;20230;-84
2022/12/20 07:48:57;;;;;;;47.33;21.90;;;-2.00;99.90;;;;;;5055869;28;20695;-84
2022/12/20 07:51:28;;;;;;;47.17;21.75;;;-2.00;99.90;;;;;;5048129;28;20235;-84
2022/12/20 07:54:01;;;;;;;37.17;17.15;;;-1.90;99.90;;;;;;5048698;28;20288;-84
2022/12/20 07:56:31;;;;;;;43.20;20.10;;;-1.90;99.90;;;;;;5056868;28;20226;-84
2022/12/20 07:59:00;;;;;;;32.22;17.95;;;-1.80;99.90;;;;;;5047680;28;20231;-85
2022/12/20 08:01:29;;;;;;;37.92;18.90;;;-1.90;99.90;;;;;;5048366;28;20204;-85
2022/12/20 08:04:02;;;;;;;43.17;19.85;;;-1.80;99.90;;;;;;5052759;28;20240;-85
2022/12/20 08:06:29;;;;;;;43.03;19.70;;;-1.80;99.90;;;;;;5046681;28;20223;-85
2022/12/20 08:09:00;;;;;;;47.50;19.90;;;-1.70;99.90;;;;;;5044413;28;20393;-85
2022/12/20 08:11:29;;;;;;;39.28;20.25;;;-1.80;99.90;;;;;;5045341;28;20251;-84
2022/12/20 08:13:56;;;;;;;38.40;19.73;;;-1.80;99.90;;;;;;5048674;28;20231;-83
2022/12/20 08:16:23;;;;;;;36.92;16.77;;;-1.60;99.90;;;;;;5045639;28;20259;-83
2022/12/20 08:18:50;;;;;;;48.03;21.05;;;-1.50;99.90;;;;;;5045750;28;20207;-83
2022/12/20 08:21:18;;;;;;;42.10;20.75;;;-1.50;99.90;;;;;;5046335;28;20199;-84
2022/12/20 08:23:45;;;;;;;36.55;18.00;;;-1.50;99.90;;;;;;5047062;28;20244;-84
2022/12/20 08:26:12;;;;;;;41.80;18.50;;;-1.50;99.90;;;;;;5047354;28;20655;-83
2022/12/20 08:28:39;;;;;;;38.75;19.70;;;-1.50;99.90;;;;;;5046411;28;20783;-84
2022/12/20 08:31:08;;;;;;;34.88;19.02;;;-1.40;99.90;;;;;;5047296;28;20225;-84
2022/12/20 08:33:36;;;;;;;40.85;19.65;;;-1.20;99.90;;;;;;5052869;28;20228;-85
2022/12/20 08:36:06;;;;;;;35.85;17.75;;;-1.20;99.90;;;;;;5049579;28;20259;-85
2022/12/20 08:38:36;;;;;;;35.55;20.23;;;-1.30;99.90;;;;;;5045998;28;20317;-85
2022/12/20 08:41:04;;;;;;;33.80;16.85;;;-1.10;99.90;;;;;;5046145;28;20232;-85
2022/12/20 08:43:32;;;;;;;44.10;20.52;;;-1.00;99.90;;;;;;5053005;28;20301;-84
2022/12/20 08:45:59;;;;;;;39.03;17.55;;;-1.10;99.90;;;;;;5050363;28;20312;-84
2022/12/20 08:48:27;;;;;;;29.60;16.55;;;-1.10;99.90;;;;;;5044848;28;20787;-85
2022/12/20 08:50:57;;;;;;;28.42;17.33;;;-1.00;99.90;;;;;;5047804;28;20245;-85
2022/12/20 08:53:24;;;;;;;32.83;15.90;;;-0.80;99.90;;;;;;5047769;28;20216;-85
2022/12/20 08:55:53;;;;;;;28.88;15.20;;;-0.90;99.90;;;;;;5051953;28;20260;-84
2022/12/20 08:58:20;;;;;;;34.90;16.80;;;-1.10;99.90;;;;;;5045749;28;20237;-85
2022/12/20 09:00:47;;;;;;;35.40;19.45;;;-1.00;99.90;;;;;;5053425;28;20209;-85
2022/12/20 09:03:14;;;;;;;29.15;15.98;;;-0.90;99.90;;;;;;5059468;28;20299;-84
2022/12/20 09:05:45;;;;;;;39.17;17.67;;;-0.90;99.90;;;;;;5051297;28;20229;-84
2022/12/20 09:08:12;;;;;;;34.83;16.92;;;-0.90;99.90;;;;;;5056712;28;20229;-84
2022/12/20 09:10:39;;;;;;;32.28;17.92;;;-0.90;99.90;;;;;;5053487;28;20216;-84
2022/12/20 09:13:08;;;;;;;39.42;17.35;;;-1.00;99.90;;;;;;5058210;28;20258;-84
2022/12/20 09:15:35;;;;;;;44.35;19.85;;;-1.00;99.90;;;;;;5054152;28;20330;-85
2022/12/20 09:18:03;;;;;;;34.10;18.33;;;-0.90;99.90;;;;;;5048625;28;20255;-84
2022/12/20 09:20:30;;;;;;;35.33;18.70;;;-0.80;99.90;;;;;;5044988;28;20216;-84
2022/12/20 09:22:58;;;;;;;36.90;17.02;;;-1.00;99.90;;;;;;5048558;28;20207;-84
2022/12/20 09:25:25;;;;;;;37.95;18.23;;;-0.90;99.90;;;;;;5044012;28;20252;-84
2022/12/20 09:27:54;;;;;;;40.83;15.60;;;-0.80;99.90;;;;;;5045639;28;20287;-84
2022/12/20 09:30:22;;;;;;;39.80;16.73;;;-1.00;99.90;;;;;;5052577;28;20239;-83
2022/12/20 09:32:49;;;;;;;34.20;16.77;;;-1.00;99.90;;;;;;5047077;28;20925;-84
2022/12/20 09:35:16;;;;;;;33.47;16.10;;;-1.10;99.90;;;;;;5044288;28;20225;-84
2022/12/20 09:37:43;;;;;;;35.88;17.23;;;-0.90;99.90;;;;;;5045856;28;20240;-84
2022/12/20 09:40:17;;;;;;;46.78;18.92;;;-0.90;99.90;;;;;;5048579;28;20202;-84
2022/12/20 09:42:45;;;;;;;41.42;18.02;;;-0.70;99.90;;;;;;5045480;28;20556;-84
2022/12/20 09:45:20;;;;;;;33.05;16.58;;;-0.60;99.90;;;;;;5047490;28;20279;-84
2022/12/20 09:47:48;;;;;;;39.63;17.58;;;-0.50;99.90;;;;;;5054602;28;20244;-84
2022/12/20 09:50:17;;;;;;;31.53;14.57;;;-0.50;99.90;;;;;;5048136;28;20294;-83
2022/12/20 09:52:55;;;;;;;29.80;14.80;;;-0.60;99.90;;;;;;5055226;28;20514;-84
2022/12/20 09:55:31;;;;;;;39.28;17.10;;;-0.60;99.90;;;;;;5054389;28;20488;-84
2022/12/20 09:58:14;;;;;;;33.30;16.10;;;-0.70;99.90;;;;;;5049015;28;20239;-84
2022/12/20 10:00:45;;;;;;;28.37;16.13;;;-0.80;99.90;;;;;;5049618;28;20244;-83
2022/12/20 10:03:19;;;;;;;37.53;17.13;;;-0.60;99.90;;;;;;5048407;28;20497;-84
2022/12/20 10:05:51;;;;;;;31.10;16.25;;;-0.50;99.90;;;;;;5050461;28;20458;-84
2022/12/20 10:08:30;;;;;;;30.55;14.45;;;-0.50;99.90;;;;;;5047027;28;20572;-84
2022/12/20 10:11:01;;;;;;;41.83;18.08;;;-0.50;99.90;;;;;;5052049;28;20246;-85
2022/12/20 10:13:41;;;;;;;29.60;14.70;;;-0.40;99.90;;;;;;5047182;28;20268;-84
2022/12/20 10:16:22;;;;;;;36.10;16.80;;;-0.40;99.90;;;;;;5049321;28;20237;-84
2022/12/20 10:18:59;;;;;;;42.73;18.67;;;-0.40;99.90;;;;;;5052898;28;20506;-84
2022/12/20 10:21:35;;;;;;;34.80;18.40;;;-0.40;99.90;;;;;;5047416;28;20451;-84
2022/12/20 10:24:04;;;;;;;35.17;16.80;;;-0.20;99.90;;;;;;5049863;28;20546;-84
2022/12/20 10:26:34;;;;;;;35.85;18.30;;;-0.20;99.90;;;;;;5050320;28;20255;-84
2022/12/20 10:29:01;;;;;;;36.70;17.05;;;-0.10;99.90;;;;;;5048724;28;20233;-84
2022/12/20 10:31:28;;;;;;;33.83;16.48;;;0.00;99.90;;;;;;5046288;28;20237;-84
2022/12/20 10:33:56;;;;;;;29.85;16.85;;;0.10;99.90;;;;;;5050105;28;20297;-85
2022/12/20 10:36:27;;;;;;;32.00;14.57;;;0.20;99.90;;;;;;5047322;28;20263;-85
2022/12/20 10:38:55;;;;;;;28.58;15.55;;;0.30;99.90;;;;;;5048320;28;20455;-85
2022/12/20 10:41:24;;;;;;;33.92;16.27;;;0.10;99.90;;;;;;5049096;28;20234;-85
2022/12/20 10:43:57;;;;;;;29.60;16.10;;;0.00;99.90;;;;;;5053367;28;20284;-85
2022/12/20 10:46:36;;;;;;;37.10;15.93;;;-0.20;99.90;;;;;;5053117;28;20285;-85
2022/12/20 10:49:28;;;;;;;31.10;18.25;;;-0.30;99.90;;;;;;5053251;28;20205;-85
2022/12/20 10:51:56;;;;;;;29.05;16.33;;;-0.20;99.90;;;;;;5048622;28;20216;-84
2022/12/20 10:54:25;;;;;;;30.67;16.50;;;-0.30;99.90;;;;;;5045491;28;20226;-85
2022/12/20 10:56:57;;;;;;;40.40;17.60;;;-0.30;99.90;;;;;;5048635;28;20676;-84
2022/12/20 10:59:33;;;;;;;33.33;16.77;;;-0.40;99.90;;;;;;5053048;28;20665;-85
2022/12/20 11:02:00;;;;;;;40.15;18.15;;;-0.40;99.90;;;;;;5054875;28;20249;-85
2022/12/20 11:04:31;;;;;;;28.50;15.20;;;-0.20;99.90;;;;;;5050394;28;21310;-85
2022/12/20 11:06:58;;;;;;;34.73;18.00;;;0.10;99.90;;;;;;5049710;28;20523;-85
2022/12/20 11:09:29;;;;;;;36.97;16.87;;;0.10;99.90;;;;;;5047681;28;20537;-85
2022/12/20 11:12:04;;;;;;;44.20;19.77;;;0.30;99.90;;;;;;5047588;28;20542;-93
2022/12/20 11:14:33;;;;;;;31.80;16.37;;;0.40;99.90;;;;;;5049245;28;20539;-85
2022/12/20 11:17:04;;;;;;;37.87;19.73;;;0.30;99.90;;;;;;5048529;28;21028;-85
2022/12/20 11:19:50;;;;;;;38.00;18.50;;;0.30;99.90;;;;;;5045817;28;20545;-85
2022/12/20 11:22:31;;;;;;;43.90;22.23;;;0.30;99.90;;;;;;5051123;28;20490;-85
2022/12/20 11:25:07;;;;;;;39.73;20.67;;;0.40;99.90;;;;;;5050329;28;20529;-86
2022/12/20 11:27:44;;;;;;;41.17;22.17;;;0.40;99.90;;;;;;5044618;28;20517;-86
2022/12/20 11:30:18;;;;;;;44.33;22.77;;;0.40;99.90;;;;;;5048552;28;20495;-85
2022/12/20 11:33:26;;;;;;;42.60;18.90;;;0.20;99.90;;;;;;5047155;28;20471;-85
2022/12/20 11:36:00;;;;;;;34.22;16.55;;;0.30;99.90;;;;;;5022055;28;20958;-85
2022/12/20 11:38:40;;;;;;;35.00;18.45;;;0.10;99.90;;;;;;5048310;28;20204;-86
2022/12/20 11:41:21;;;;;;;30.80;17.95;;;0.20;99.90;;;;;;5049514;28;20213;-85
2022/12/20 11:44:08;;;;;;;41.37;17.80;;;0.10;99.90;;;;;;5057477;28;20213;-85
2022/12/20 11:46:46;;;;;;;38.83;16.23;;;0.10;99.90;;;;;;5048392;28;20439;-85
2022/12/20 11:49:35;;;;;;;31.00;15.50;;;-0.20;99.90;;;;;;5046792;28;20746;-85
2022/12/20 11:52:12;;;;;;;36.78;15.63;;;-0.20;99.90;;;;;;5048904;28;20213;-85
2022/12/20 11:54:43;;;;;;;32.97;17.77;;;-0.10;99.90;;;;;;5047551;28;20212;-85
2022/12/20 11:57:17;;;;;;;39.03;18.08;;;-0.30;99.90;;;;;;5047698;28;20221;-85
2022/12/20 11:59:47;;;;;;;35.55;15.50;;;-0.30;99.90;;;;;;5046866;28;20283;-85
2022/12/20 12:02:19;;;;;;;35.70;16.77;;;0.00;99.90;;;;;;5049718;28;20208;-85
2022/12/20 12:04:52;;;;;;;32.25;16.23;;;-0.10;99.90;;;;;;5046555;28;20217;-86
2022/12/20 12:07:25;;;;;;;35.63;16.88;;;0.00;99.90;;;;;;5056431;28;20202;-85
2022/12/20 12:09:59;;;;;;;41.17;16.98;;;0.10;99.90;;;;;;5045055;28;20222;-85
2022/12/20 12:12:29;;;;;;;44.25;19.50;;;0.20;99.90;;;;;;5047464;28;20209;-85
2022/12/20 12:15:02;;;;;;;31.48;18.00;;;0.10;99.90;;;;;;5051513;28;20245;-85
2022/12/20 12:17:36;;;;;;;35.53;17.20;;;-0.10;99.90;;;;;;5043267;28;20774;-85
2022/12/20 12:20:23;;;;;;;37.23;18.30;;;-0.20;99.90;;;;;;5048425;28;20516;-84
2022/12/20 12:22:55;;;;;;;30.80;17.33;;;-0.10;99.90;;;;;;5046091;28;20552;-83
2022/12/20 12:25:22;;;;;;;35.93;16.27;;;-0.10;99.90;;;;;;5051138;28;20489;-83
2022/12/20 12:27:49;;;;;;;40.93;17.60;;;0.10;99.90;;;;;;5048544;28;20448;-83
2022/12/20 12:30:17;;;;;;;38.97;18.20;;;0.10;99.90;;;;;;5045011;28;20491;-83
2022/12/20 12:32:48;;;;;;;33.30;16.30;;;0.10;99.90;;;;;;5047470;28;20449;-83
2022/12/20 12:35:45;;;;;;;33.53;16.03;;;0.10;99.90;;;;;;5049081;28;20233;-83
2022/12/20 12:38:51;;;;;;;36.97;17.70;;;0.20;99.90;;;;;;5051620;28;20504;-83
2022/12/20 12:41:39;;;;;;;39.90;24.80;;;0.20;99.90;;;;;;5058018;28;20462;-83
2022/12/20 12:44:32;;;;;;;30.50;15.27;;;0.10;99.90;;;;;;5053588;28;20936;-83
2022/12/20 12:47:02;;;;;;;38.67;19.87;;;0.20;99.90;;;;;;5051729;28;20522;-83
2022/12/20 12:49:31;;;;;;;77.93;40.42;;;0.20;99.90;;;;;;5050902;28;20916;-83
2022/12/20 12:52:00;;;;;;;102.40;46.93;;;0.20;99.90;;;;;;5052639;28;20738;-83